createdAt,value
2023-12-30T00:00:20.030Z,9.60
2023-12-30T00:02:47.614Z,9.50
2023-12-30T00:05:14.718Z,9.60
2023-12-30T00:07:43.040Z,9.50
2023-12-30T00:10:10.560Z,9.60
2023-12-30T00:12:37.560Z,9.50
2023-12-30T00:15:05.264Z,9.50
2023-12-30T00:17:32.179Z,9.50
2023-12-30T00:22:54.081Z,9.50
2023-12-30T00:25:23.102Z,9.40
2023-12-30T00:27:52.937Z,9.40
2023-12-30T00:30:20.060Z,9.40
2023-12-30T00:32:47.001Z,9.30
2023-12-30T00:35:13.931Z,9.30
2023-12-30T00:37:40.829Z,9.30
2023-12-30T00:40:10.499Z,9.20
2023-12-30T00:42:37.593Z,9.20
2023-12-30T00:45:05.790Z,9.20
2023-12-30T00:47:32.937Z,9.10
2023-12-30T00:49:59.932Z,9.20
2023-12-30T00:52:27.010Z,9.10
2023-12-30T00:54:54.024Z,9.10
2023-12-30T00:57:22.348Z,9.10
2023-12-30T00:59:49.246Z,9.00
2023-12-30T01:02:16.128Z,9.00
2023-12-30T01:04:43.142Z,9.00
2023-12-30T01:07:10.219Z,9.00
2023-12-30T01:09:37.150Z,9.00
2023-12-30T01:12:04.462Z,9.00
2023-12-30T01:14:32.877Z,9.00
2023-12-30T01:16:59.972Z,9.00
2023-12-30T01:19:27.305Z,9.00
2023-12-30T01:21:54.295Z,9.00
2023-12-30T01:24:21.256Z,9.00
2023-12-30T01:26:48.302Z,8.90
2023-12-30T01:29:15.482Z,8.90
2023-12-30T01:31:43.754Z,8.90
2023-12-30T01:34:11.391Z,8.90
2023-12-30T01:36:38.308Z,8.90
2023-12-30T01:39:05.228Z,8.90
2023-12-30T01:41:32.771Z,8.90
2023-12-30T01:43:59.739Z,8.90
2023-12-30T01:46:27.389Z,8.90
2023-12-30T01:48:55.979Z,8.90
2023-12-30T01:51:25.328Z,9.00
2023-12-30T01:53:55.507Z,9.00
2023-12-30T01:56:24.020Z,9.00
2023-12-30T01:58:52.408Z,9.00
2023-12-30T02:01:21.427Z,9.00
2023-12-30T02:03:49.130Z,8.90
2023-12-30T02:06:17.469Z,8.90
2023-12-30T02:08:44.501Z,8.90
2023-12-30T02:11:11.966Z,8.90
2023-12-30T02:13:42.210Z,8.90
2023-12-30T02:16:09.254Z,8.90
2023-12-30T02:18:36.720Z,8.90
2023-12-30T02:21:03.895Z,8.90
2023-12-30T02:23:32.131Z,8.80
2023-12-30T02:25:59.113Z,8.90
2023-12-30T02:28:26.154Z,8.80
2023-12-30T02:30:53.259Z,8.80
2023-12-30T02:33:20.297Z,8.80
2023-12-30T02:35:48.310Z,8.80
2023-12-30T02:38:15.358Z,8.80
2023-12-30T02:40:45.094Z,8.80
2023-12-30T02:43:12.084Z,8.80
2023-12-30T02:45:39.005Z,8.80
2023-12-30T02:48:07.133Z,8.80
2023-12-30T02:50:34.158Z,8.70
2023-12-30T02:53:01.477Z,8.70
2023-12-30T02:55:28.553Z,8.70
2023-12-30T02:57:56.914Z,8.70
2023-12-30T03:00:23.789Z,8.60
2023-12-30T03:02:50.781Z,8.60
2023-12-30T03:05:20.042Z,8.60
2023-12-30T03:07:47.032Z,8.60
2023-12-30T03:10:14.190Z,8.60
2023-12-30T03:12:41.129Z,8.60
2023-12-30T03:15:10.657Z,8.60
2023-12-30T03:17:37.720Z,8.60
2023-12-30T03:20:06.031Z,8.50
2023-12-30T03:22:33.762Z,8.60
2023-12-30T03:25:00.944Z,8.60
2023-12-30T03:27:27.923Z,8.60
2023-12-30T03:29:55.017Z,8.60
2023-12-30T03:32:23.381Z,8.70
2023-12-30T03:34:50.456Z,8.70
2023-12-30T03:37:17.681Z,8.70
2023-12-30T03:39:44.632Z,8.70
2023-12-30T03:42:12.188Z,8.80
2023-12-30T03:44:39.202Z,8.80
2023-12-30T03:47:06.185Z,8.80
2023-12-30T03:49:34.933Z,8.80
2023-12-30T03:52:02.143Z,8.80
2023-12-30T03:54:29.096Z,8.80
2023-12-30T03:56:56.779Z,8.70
2023-12-30T03:59:23.800Z,8.80
2023-12-30T04:01:50.914Z,8.70
2023-12-30T04:04:17.936Z,8.80
2023-12-30T04:06:46.243Z,8.80
2023-12-30T04:09:13.468Z,8.80
2023-12-30T04:11:40.479Z,8.80
2023-12-30T04:14:07.447Z,8.80
2023-12-30T04:16:34.450Z,8.80
2023-12-30T04:19:01.431Z,8.90
2023-12-30T04:21:28.574Z,8.90
2023-12-30T04:23:56.826Z,8.90
2023-12-30T04:26:23.794Z,8.90
2023-12-30T04:28:50.714Z,9.00
2023-12-30T04:31:17.807Z,9.00
2023-12-30T04:33:44.826Z,9.00
2023-12-30T04:36:11.923Z,9.10
2023-12-30T04:38:38.777Z,9.10
2023-12-30T04:41:07.186Z,9.10
2023-12-30T04:43:34.336Z,9.10
2023-12-30T04:46:01.361Z,9.10
2023-12-30T04:48:28.523Z,9.00
2023-12-30T04:50:55.377Z,9.00
2023-12-30T04:53:22.332Z,9.00
2023-12-30T04:55:49.226Z,9.00
2023-12-30T04:58:18.676Z,9.00
2023-12-30T05:00:45.702Z,8.90
2023-12-30T05:03:12.998Z,8.90
2023-12-30T05:05:40.235Z,8.90
2023-12-30T05:08:08.207Z,8.80
2023-12-30T05:10:35.598Z,8.80
2023-12-30T05:13:03.629Z,8.80
2023-12-30T05:15:32.403Z,8.90
2023-12-30T05:17:59.542Z,8.80
2023-12-30T05:20:26.678Z,8.80
2023-12-30T05:22:53.651Z,8.90
2023-12-30T05:25:20.678Z,8.80
2023-12-30T05:27:47.591Z,8.80
2023-12-30T05:30:14.610Z,8.80
2023-12-30T05:32:42.890Z,8.80
2023-12-30T05:35:09.922Z,8.80
2023-12-30T05:37:37.006Z,8.80
2023-12-30T05:40:07.397Z,8.80
2023-12-30T05:42:34.841Z,8.80
2023-12-30T05:45:01.979Z,8.80
2023-12-30T05:47:28.956Z,8.80
2023-12-30T05:49:57.358Z,8.90
2023-12-30T05:52:24.494Z,8.80
2023-12-30T05:54:53.894Z,8.80
2023-12-30T05:57:20.910Z,8.80
2023-12-30T05:59:47.888Z,8.80
2023-12-30T06:02:15.262Z,8.80
2023-12-30T06:04:42.549Z,8.80
2023-12-30T06:07:11.052Z,8.80
2023-12-30T06:09:38.112Z,8.80
2023-12-30T06:12:05.666Z,8.80
2023-12-30T06:14:32.630Z,8.90
2023-12-30T06:16:59.586Z,8.90
2023-12-30T06:19:26.556Z,8.90
2023-12-30T06:21:53.490Z,8.90
2023-12-30T06:24:22.466Z,8.90
2023-12-30T06:26:50.282Z,8.90
2023-12-30T06:29:17.349Z,8.90
2023-12-30T06:31:44.573Z,8.90
2023-12-30T06:34:12.841Z,8.90
2023-12-30T06:36:44.325Z,8.90
2023-12-30T06:39:13.856Z,8.90
2023-12-30T06:41:42.767Z,8.90
2023-12-30T06:44:09.964Z,8.90
2023-12-30T06:46:37.136Z,8.90
2023-12-30T06:49:04.226Z,9.00
2023-12-30T06:51:31.189Z,9.00
2023-12-30T06:53:58.196Z,9.00
2023-12-30T06:56:25.387Z,9.00
2023-12-30T06:58:53.815Z,9.00
2023-12-30T07:01:21.988Z,9.10
2023-12-30T07:03:49.295Z,9.10
2023-12-30T07:06:16.338Z,9.10
2023-12-30T07:08:43.367Z,9.10
2023-12-30T07:11:10.419Z,9.10
2023-12-30T07:13:37.503Z,9.10
2023-12-30T07:16:06.483Z,9.10
2023-12-30T07:18:33.519Z,9.00
2023-12-30T07:21:00.453Z,9.00
2023-12-30T07:23:27.397Z,9.00
2023-12-30T07:25:54.330Z,9.00
2023-12-30T07:28:21.337Z,9.00
2023-12-30T07:30:48.384Z,9.10
2023-12-30T07:33:16.839Z,9.10
2023-12-30T07:35:43.861Z,9.20
2023-12-30T07:38:10.904Z,9.20
2023-12-30T07:40:37.942Z,9.20
2023-12-30T07:43:05.466Z,9.10
2023-12-30T07:45:32.647Z,9.10
2023-12-30T07:47:59.590Z,9.20
2023-12-30T07:50:27.953Z,9.20
2023-12-30T07:52:54.954Z,9.20
2023-12-30T07:55:21.971Z,9.10
2023-12-30T07:57:48.867Z,9.20
2023-12-30T08:00:16.540Z,9.20
2023-12-30T08:02:45.453Z,9.20
2023-12-30T08:05:15.832Z,9.20
2023-12-30T08:07:44.138Z,9.20
2023-12-30T08:10:13.145Z,9.30
2023-12-30T08:12:40.150Z,9.30
2023-12-30T08:15:09.333Z,9.30
2023-12-30T08:17:36.371Z,9.30
2023-12-30T08:20:04.178Z,9.30
2023-12-30T08:22:31.273Z,9.30
2023-12-30T08:24:59.720Z,9.30
2023-12-30T08:27:26.688Z,9.30
2023-12-30T08:29:53.738Z,9.30
2023-12-30T08:32:20.850Z,9.40
2023-12-30T08:34:47.752Z,9.40
2023-12-30T08:37:14.948Z,9.40
2023-12-30T08:39:42.296Z,9.40
2023-12-30T08:42:10.875Z,9.40
2023-12-30T08:44:41.901Z,9.40
2023-12-30T08:47:08.990Z,9.40
2023-12-30T08:49:36.565Z,9.50
2023-12-30T08:52:03.841Z,9.60
2023-12-30T08:54:30.737Z,9.70
2023-12-30T08:56:57.933Z,9.90
2023-12-30T08:59:26.975Z,9.90
2023-12-30T09:01:54.123Z,9.80
2023-12-30T09:04:21.696Z,9.80
2023-12-30T09:06:48.781Z,9.90
2023-12-30T09:09:15.898Z,9.90
2023-12-30T09:11:44.277Z,10.00
2023-12-30T09:14:11.944Z,10.00
2023-12-30T09:16:40.377Z,10.00
2023-12-30T09:19:07.471Z,10.00
2023-12-30T09:21:35.028Z,10.00
2023-12-30T09:24:01.947Z,10.00
2023-12-30T09:26:29.018Z,10.00
2023-12-30T09:28:56.046Z,10.00
2023-12-30T09:31:25.814Z,10.00
2023-12-30T09:33:54.614Z,10.00
2023-12-30T09:36:21.897Z,10.00
2023-12-30T09:38:49.048Z,10.00
2023-12-30T09:41:16.078Z,10.10
2023-12-30T09:43:45.128Z,10.40
2023-12-30T09:46:13.453Z,10.80
2023-12-30T09:48:42.704Z,11.10
2023-12-30T09:51:11.433Z,11.40
2023-12-30T09:53:39.700Z,11.50
2023-12-30T09:56:07.761Z,11.50
2023-12-30T09:58:36.735Z,11.40
2023-12-30T10:01:05.383Z,11.30
2023-12-30T10:03:33.371Z,11.20
2023-12-30T10:06:02.451Z,11.40
2023-12-30T10:08:31.103Z,11.70
2023-12-30T10:10:58.594Z,11.80
2023-12-30T10:13:28.728Z,11.80
2023-12-30T10:15:59.020Z,11.90
2023-12-30T10:18:27.176Z,11.90
2023-12-30T10:20:54.304Z,11.80
2023-12-30T10:23:21.317Z,11.70
2023-12-30T10:25:49.806Z,11.50
2023-12-30T10:28:17.796Z,11.50
2023-12-30T10:30:44.933Z,11.40
2023-12-30T10:33:13.266Z,11.40
2023-12-30T10:35:41.698Z,11.20
2023-12-30T10:38:09.681Z,11.20
2023-12-30T10:40:37.206Z,11.20
2023-12-30T10:43:05.964Z,11.10
2023-12-30T10:45:33.304Z,11.10
2023-12-30T10:48:01.682Z,11.10
2023-12-30T10:50:29.177Z,11.00
2023-12-30T10:53:02.906Z,11.00
2023-12-30T10:55:35.627Z,11.00
2023-12-30T10:58:07.459Z,11.00
2023-12-30T11:00:37.424Z,11.10
2023-12-30T11:03:06.179Z,11.20
2023-12-30T11:05:39.675Z,11.30
2023-12-30T11:08:07.573Z,11.40
2023-12-30T11:10:35.196Z,11.50
2023-12-30T11:13:02.712Z,11.60
2023-12-30T11:15:33.057Z,11.60
2023-12-30T11:18:01.041Z,11.40
2023-12-30T11:20:29.886Z,11.70
2023-12-30T11:22:59.631Z,11.70
2023-12-30T11:25:41.833Z,11.70
2023-12-30T11:28:21.469Z,11.70
2023-12-30T11:30:58.177Z,11.70
2023-12-30T11:33:25.412Z,11.70
2023-12-30T11:35:55.311Z,11.80
2023-12-30T11:38:22.794Z,11.80
2023-12-30T11:40:52.111Z,11.70
2023-12-30T11:43:19.965Z,11.70
2023-12-30T11:45:46.946Z,11.60
2023-12-30T11:48:15.957Z,11.60
2023-12-30T11:50:43.358Z,11.60
2023-12-30T11:53:10.520Z,11.50
2023-12-30T11:55:37.684Z,11.60
2023-12-30T11:58:04.874Z,11.50
2023-12-30T12:00:31.900Z,11.50
2023-12-30T12:02:59.008Z,11.50
2023-12-30T12:05:28.230Z,11.50
2023-12-30T12:07:55.241Z,11.50
2023-12-30T12:10:22.198Z,11.50
2023-12-30T12:12:49.582Z,11.60
2023-12-30T12:15:16.603Z,11.60
2023-12-30T12:17:43.922Z,11.60
2023-12-30T12:20:13.947Z,11.60
2023-12-30T12:22:42.933Z,11.60
2023-12-30T12:25:10.919Z,11.60
2023-12-30T12:27:38.044Z,11.60
2023-12-30T12:30:06.549Z,11.70
2023-12-30T12:32:35.462Z,11.70
2023-12-30T12:35:02.627Z,11.70
2023-12-30T12:37:29.907Z,11.70
2023-12-30T12:39:58.434Z,11.70
2023-12-30T12:42:30.784Z,11.80
2023-12-30T12:44:58.492Z,11.80
2023-12-30T12:47:25.834Z,11.70
2023-12-30T12:49:52.970Z,11.80
2023-12-30T12:52:20.000Z,11.80
2023-12-30T12:54:46.822Z,11.80
2023-12-30T12:57:15.232Z,11.80
2023-12-30T12:59:42.303Z,11.80
2023-12-30T13:02:10.067Z,11.90
2023-12-30T13:04:37.521Z,11.90
2023-12-30T13:07:07.076Z,11.90
2023-12-30T13:09:36.298Z,11.90
2023-12-30T13:12:04.273Z,12.00
2023-12-30T13:14:34.210Z,12.00
2023-12-30T13:17:12.640Z,12.10
2023-12-30T13:19:40.880Z,12.20
2023-12-30T13:22:08.244Z,12.20
2023-12-30T13:24:35.458Z,12.10
2023-12-30T13:27:03.046Z,12.10
2023-12-30T13:29:32.045Z,12.20
2023-12-30T13:32:00.789Z,12.10
2023-12-30T13:34:31.699Z,12.20
2023-12-30T13:37:04.564Z,12.20
2023-12-30T13:39:34.604Z,12.20
2023-12-30T13:42:05.741Z,12.10
2023-12-30T13:44:43.734Z,12.10
2023-12-30T13:47:21.294Z,12.10
2023-12-30T13:50:01.023Z,12.10
2023-12-30T13:52:29.222Z,12.10
2023-12-30T13:54:56.707Z,12.00
2023-12-30T13:57:26.488Z,12.10
2023-12-30T13:59:53.634Z,12.00
2023-12-30T14:02:25.179Z,12.00
2023-12-30T14:04:58.140Z,12.00
2023-12-30T14:07:29.687Z,12.10
2023-12-30T14:10:01.278Z,12.00
2023-12-30T14:12:30.188Z,12.00
2023-12-30T14:14:57.708Z,12.00
2023-12-30T14:17:32.505Z,12.10
2023-12-30T14:20:02.509Z,12.00
2023-12-30T14:22:29.558Z,12.00
2023-12-30T14:24:57.614Z,12.00
2023-12-30T14:27:25.032Z,11.90
2023-12-30T14:29:55.302Z,11.90
2023-12-30T14:32:23.772Z,11.80
2023-12-30T14:34:52.800Z,11.80
2023-12-30T14:37:19.859Z,11.70
2023-12-30T14:39:46.847Z,11.70
2023-12-30T14:42:14.166Z,11.60
2023-12-30T14:44:41.350Z,11.60
2023-12-30T14:47:08.578Z,11.50
2023-12-30T14:49:35.752Z,11.50
2023-12-30T14:52:04.587Z,11.40
2023-12-30T14:54:31.563Z,11.40
2023-12-30T14:56:58.698Z,11.40
2023-12-30T14:59:27.529Z,11.40
2023-12-30T15:01:56.176Z,11.40
2023-12-30T15:04:23.539Z,11.40
2023-12-30T15:06:50.508Z,11.30
2023-12-30T15:09:19.108Z,11.30
2023-12-30T15:11:46.561Z,11.30
2023-12-30T15:14:13.658Z,11.30
2023-12-30T15:16:40.730Z,11.20
2023-12-30T15:19:07.982Z,11.20
2023-12-30T15:21:37.672Z,11.20
2023-12-30T15:24:05.713Z,11.20
2023-12-30T15:26:34.094Z,11.10
2023-12-30T15:29:00.982Z,11.10
2023-12-30T15:31:28.191Z,11.10
2023-12-30T15:33:55.303Z,11.10
2023-12-30T15:36:23.269Z,11.10
2023-12-30T15:38:53.475Z,11.10
2023-12-30T15:41:22.268Z,11.00
2023-12-30T15:43:50.851Z,11.00
2023-12-30T15:46:18.184Z,11.00
2023-12-30T15:48:45.264Z,11.00
2023-12-30T15:51:12.678Z,10.90
2023-12-30T15:53:40.263Z,10.90
2023-12-30T15:56:07.620Z,10.90
2023-12-30T15:58:34.729Z,10.80
2023-12-30T16:01:03.749Z,10.80
2023-12-30T16:03:30.834Z,10.70
2023-12-30T16:05:58.140Z,10.70
2023-12-30T16:08:26.136Z,10.70
2023-12-30T16:10:53.152Z,10.70
2023-12-30T16:13:20.060Z,10.70
2023-12-30T16:15:51.055Z,10.70
2023-12-30T16:18:19.755Z,10.70
2023-12-30T16:20:46.756Z,10.60
2023-12-30T16:23:13.693Z,10.60
2023-12-30T16:25:41.383Z,10.50
2023-12-30T16:28:08.430Z,10.50
2023-12-30T16:30:35.373Z,10.50
2023-12-30T16:33:03.076Z,10.50
2023-12-30T16:35:31.611Z,10.50
2023-12-30T16:37:58.959Z,10.50
2023-12-30T16:40:28.774Z,10.40
2023-12-30T16:42:55.957Z,10.40
2023-12-30T16:45:22.873Z,10.40
2023-12-30T16:47:49.903Z,10.40
2023-12-30T16:50:16.908Z,10.40
2023-12-30T16:52:45.433Z,10.40
2023-12-30T16:55:12.930Z,10.40
2023-12-30T16:57:40.045Z,10.40
2023-12-30T17:00:10.999Z,10.40
2023-12-30T17:02:38.399Z,10.30
2023-12-30T17:05:06.615Z,10.30
2023-12-30T17:07:34.086Z,10.30
2023-12-30T17:10:02.862Z,10.30
2023-12-30T17:12:29.907Z,10.30
2023-12-30T17:14:56.822Z,10.20
2023-12-30T17:17:23.780Z,10.30
2023-12-30T17:19:53.951Z,10.20
2023-12-30T17:22:20.843Z,10.20
2023-12-30T17:24:47.858Z,10.20
2023-12-30T17:27:17.212Z,10.10
2023-12-30T17:29:44.141Z,10.10
2023-12-30T17:32:11.578Z,10.10
2023-12-30T17:34:38.624Z,10.00
2023-12-30T17:37:05.864Z,10.00
2023-12-30T17:39:32.931Z,10.00
2023-12-30T17:42:02.112Z,10.00
2023-12-30T17:44:30.769Z,9.90
2023-12-30T17:46:57.878Z,9.90
2023-12-30T17:49:27.919Z,9.80
2023-12-30T17:51:55.104Z,9.80
2023-12-30T17:54:22.101Z,9.80
2023-12-30T17:56:51.260Z,9.70
2023-12-30T17:59:26.134Z,9.70
2023-12-30T18:01:54.592Z,9.60
2023-12-30T18:04:21.645Z,9.60
2023-12-30T18:06:48.620Z,9.60
2023-12-30T18:09:15.592Z,9.50
2023-12-30T18:11:42.572Z,9.50
2023-12-30T18:14:12.842Z,9.50
2023-12-30T18:16:39.946Z,9.50
2023-12-30T18:19:08.470Z,9.50
2023-12-30T18:21:35.783Z,9.40
2023-12-30T18:24:02.930Z,9.40
2023-12-30T18:26:29.827Z,9.40
2023-12-30T18:28:56.848Z,9.40
2023-12-30T18:31:23.881Z,9.30
2023-12-30T18:33:50.822Z,9.30
2023-12-30T18:36:19.114Z,9.30
2023-12-30T18:38:46.111Z,9.30
2023-12-30T18:41:13.412Z,9.30
2023-12-30T18:43:40.538Z,9.30
2023-12-30T18:46:07.677Z,9.30
2023-12-30T18:48:34.698Z,9.30
2023-12-30T18:51:01.982Z,9.30
2023-12-30T18:53:30.482Z,9.40
2023-12-30T18:56:03.733Z,9.40
2023-12-30T18:58:30.724Z,9.50
2023-12-30T19:00:58.757Z,9.40
2023-12-30T19:03:25.825Z,9.40
2023-12-30T19:05:52.822Z,9.40
2023-12-30T19:08:19.781Z,9.40
2023-12-30T19:10:48.163Z,9.40
2023-12-30T19:13:15.628Z,9.40
2023-12-30T19:15:42.667Z,9.40
2023-12-30T19:18:09.804Z,9.40
2023-12-30T19:20:36.817Z,9.40
2023-12-30T19:23:04.496Z,9.50
2023-12-30T19:25:31.688Z,9.50
2023-12-30T19:28:00.828Z,9.60
2023-12-30T19:30:27.806Z,9.50
2023-12-30T19:32:55.887Z,9.50
2023-12-30T19:35:23.773Z,9.60
2023-12-30T19:37:51.213Z,9.60
2023-12-30T19:40:18.210Z,9.60
2023-12-30T19:42:45.178Z,9.60
2023-12-30T19:45:13.634Z,9.60
2023-12-30T19:47:40.817Z,9.70
2023-12-30T19:50:08.838Z,9.70
2023-12-30T19:52:36.207Z,9.70
2023-12-30T19:55:03.660Z,9.80
2023-12-30T19:57:30.833Z,9.80
2023-12-30T19:59:57.698Z,9.90
2023-12-30T20:02:25.941Z,9.90
2023-12-30T20:04:53.000Z,10.00
2023-12-30T20:07:20.425Z,10.00
2023-12-30T20:09:49.021Z,10.00
2023-12-30T20:12:15.920Z,10.00
2023-12-30T20:14:43.620Z,10.00
2023-12-30T20:17:10.577Z,10.00
2023-12-30T20:19:40.980Z,10.10
2023-12-30T20:22:07.969Z,10.10
2023-12-30T20:24:37.899Z,10.10
2023-12-30T20:27:05.699Z,10.20
2023-12-30T20:29:33.074Z,10.20
2023-12-30T20:32:00.152Z,10.20
2023-12-30T20:34:27.295Z,10.20
2023-12-30T20:36:55.680Z,10.20
2023-12-30T20:39:22.662Z,10.20
2023-12-30T20:41:49.611Z,10.20
2023-12-30T20:44:16.553Z,10.20
2023-12-30T20:46:45.534Z,10.20
2023-12-30T20:49:12.766Z,10.20
2023-12-30T20:51:39.942Z,10.20
2023-12-30T20:54:08.460Z,10.20
2023-12-30T20:56:35.492Z,10.20
2023-12-30T20:59:02.608Z,10.20
2023-12-30T21:01:31.649Z,10.10
2023-12-30T21:03:59.052Z,10.10
2023-12-30T21:06:28.158Z,10.10
2023-12-30T21:08:55.062Z,10.10
2023-12-30T21:11:23.624Z,10.10
2023-12-30T21:13:50.661Z,10.10
2023-12-30T21:16:18.622Z,10.10
2023-12-30T21:18:47.719Z,10.10
2023-12-30T21:21:14.937Z,10.10
2023-12-30T21:23:41.971Z,10.10
2023-12-30T21:26:09.126Z,10.10
2023-12-30T21:28:37.800Z,10.10
2023-12-30T21:31:05.576Z,10.10
2023-12-30T21:33:32.684Z,10.00
2023-12-30T21:36:00.252Z,10.00
2023-12-30T21:38:28.286Z,10.00
2023-12-30T21:40:55.304Z,9.90
2023-12-30T21:43:23.458Z,9.90
2023-12-30T21:45:52.669Z,9.90
2023-12-30T21:48:19.686Z,9.90
2023-12-30T21:50:46.804Z,10.00
2023-12-30T21:53:14.449Z,10.00
2023-12-30T21:55:41.510Z,10.00
2023-12-30T21:58:08.537Z,10.00
2023-12-30T22:00:37.974Z,10.10
2023-12-30T22:03:07.945Z,10.10
2023-12-30T22:05:36.248Z,10.10
2023-12-30T22:08:03.796Z,10.10
2023-12-30T22:10:31.681Z,10.10
2023-12-30T22:12:58.767Z,10.10
2023-12-30T22:15:25.741Z,10.20
2023-12-30T22:17:53.480Z,10.20
2023-12-30T22:20:21.866Z,10.20
2023-12-30T22:22:48.847Z,10.20
2023-12-30T22:25:15.858Z,10.10
2023-12-30T22:27:42.848Z,10.10
2023-12-30T22:30:10.618Z,10.10
2023-12-30T22:32:37.683Z,10.20
2023-12-30T22:35:14.039Z,10.10
2023-12-30T22:37:43.630Z,10.10
2023-12-30T22:40:11.630Z,10.10
2023-12-30T22:42:39.094Z,10.10
2023-12-30T22:45:07.325Z,10.10
2023-12-30T22:47:34.248Z,10.10
2023-12-30T22:50:02.330Z,10.00
2023-12-30T22:52:29.464Z,9.90
2023-12-30T22:54:57.736Z,9.90
2023-12-30T22:57:25.358Z,9.90
2023-12-30T22:59:52.394Z,9.90
2023-12-30T23:02:19.358Z,9.90
2023-12-30T23:04:46.397Z,9.90
2023-12-30T23:07:14.120Z,9.90
2023-12-30T23:09:41.483Z,9.90
2023-12-30T23:12:10.044Z,9.90
2023-12-30T23:14:36.913Z,9.90
2023-12-30T23:17:04.221Z,9.90
2023-12-30T23:19:31.169Z,9.90
2023-12-30T23:21:58.218Z,9.90
2023-12-30T23:24:25.156Z,9.90
2023-12-30T23:26:52.119Z,9.90
2023-12-30T23:29:21.034Z,9.90
2023-12-30T23:31:49.448Z,9.90
2023-12-30T23:34:16.615Z,9.90
2023-12-30T23:36:43.685Z,9.80
2023-12-30T23:39:10.653Z,9.80
2023-12-30T23:41:37.604Z,9.80
2023-12-30T23:44:04.790Z,9.70
2023-12-30T23:46:33.034Z,9.70
2023-12-30T23:48:59.962Z,9.70
2023-12-30T23:51:26.886Z,9.70
2023-12-30T23:53:53.816Z,9.70
2023-12-30T23:56:20.814Z,9.80
2023-12-30T23:58:47.859Z,9.80
